Time;durP1;ratioP1;P1;durP2;ratioP2;P2;SDS_P1;SDS_P2;PMS_P1;PMS_P2;Temp;Humidity;BMP_temperature;BMP_pressure;BME280_temperature;BME280_humidity;BME280_pressure;Samples;Min_cycle;Max_cycle;Signal;HPM_P1;HPM_P2
2021/04/22 00:01:34;;;;;;;16.02;9.57;;;;;;;6.92;67.91;100546.66;5051160;28;21034;-23
2021/04/22 00:04:00;;;;;;;15.90;10.43;;;;;;;7.39;67.42;100565.84;5050794;28;20059;-22
2021/04/22 00:06:26;;;;;;;17.35;11.18;;;;;;;7.73;66.50;100564.41;5050736;28;20032;-22
2021/04/22 00:08:52;;;;;;;18.00;10.27;;;;;;;7.88;65.92;100573.13;5050659;28;20044;-23
2021/04/22 00:11:17;;;;;;;16.23;11.32;;;;;;;7.69;66.05;100568.44;5050739;28;20605;-22
2021/04/22 00:13:45;;;;;;;17.45;11.00;;;;;;;7.72;66.83;100568.88;5050603;28;20036;-23
2021/04/22 00:16:10;;;;;;;18.92;10.13;;;;;;;7.28;68.31;100567.13;5050695;28;20025;-23
2021/04/22 00:18:36;;;;;;;15.55;10.13;;;;;;;7.75;65.81;100562.38;5050270;28;20511;-22
2021/04/22 00:21:02;;;;;;;19.45;12.20;;;;;;;7.96;65.72;100573.00;5050384;28;20089;-23
2021/04/22 00:23:27;;;;;;;17.60;11.48;;;;;;;7.82;66.04;100563.25;5032795;28;20037;-22
2021/04/22 00:25:53;;;;;;;16.05;10.30;;;;;;;7.74;65.99;100580.13;5050333;28;20447;-23
2021/04/22 00:28:18;;;;;;;16.08;10.48;;;;;;;7.78;65.48;100575.25;5050343;28;20045;-23
2021/04/22 00:30:44;;;;;;;16.73;10.40;;;;;;;7.41;66.40;100571.78;5050120;28;20033;-22
2021/04/22 00:33:12;;;;;;;14.35;9.82;;;;;;;7.91;65.08;100562.13;5050296;28;20036;-22
2021/04/22 00:35:37;;;;;;;16.98;11.18;;;;;;;7.99;64.31;100562.00;5031437;28;20108;-22
2021/04/22 00:38:03;;;;;;;16.83;10.13;;;;;;;7.24;66.95;100569.34;5050523;28;20124;-22
2021/04/22 00:40:29;;;;;;;15.18;9.88;;;;;;;6.67;68.37;100564.66;5050318;28;20511;-23
2021/04/22 00:42:58;;;;;;;16.50;10.63;;;;;;;6.67;68.39;100569.97;5049788;28;20052;-20
2021/04/22 00:45:23;;;;;;;18.05;12.60;;;;;;;7.22;67.39;100558.09;5032740;28;20112;-23
2021/04/22 00:47:49;;;;;;;16.85;10.85;;;;;;;7.07;67.37;100554.63;5049962;28;20194;-20
2021/04/22 00:50:18;;;;;;;17.63;11.30;;;;;;;6.95;67.85;100567.53;5050382;28;20120;-21
2021/04/22 00:52:43;;;;;;;18.02;11.50;;;;;;;7.12;68.59;100573.44;5049424;28;20068;-22
2021/04/22 00:55:09;;;;;;;17.98;11.07;;;;;;;6.69;69.26;100562.66;5032174;28;20033;-20
2021/04/22 00:57:35;;;;;;;10.73;7.00;;;;;;;6.21;69.05;100570.03;5032131;28;20029;-21
2021/04/22 01:00:00;;;;;;;14.02;8.75;;;;;;;6.21;68.08;100548.84;5049982;28;20865;-22
2021/04/22 01:02:26;;;;;;;13.88;9.00;;;;;;;6.64;68.49;100576.44;5049640;28;20037;-21
2021/04/22 01:04:52;;;;;;;15.35;9.98;;;;;;;6.56;68.80;100555.34;5049713;28;20036;-22
2021/04/22 01:07:17;;;;;;;15.52;10.25;;;;;;;7.12;66.85;100541.63;5031675;28;20442;-22
2021/04/22 01:09:43;;;;;;;18.38;10.32;;;;;;;7.38;65.45;100574.81;5031837;28;20564;-22
2021/04/22 01:12:09;;;;;;;14.95;9.85;;;;;;;7.51;64.95;100576.81;5049483;28;20491;-22
2021/04/22 01:14:35;;;;;;;17.13;10.68;;;;;;;7.64;65.19;100576.94;5049238;28;20029;-23
2021/04/22 01:17:01;;;;;;;15.00;8.45;;;;;;;6.52;67.38;100574.41;5049316;28;20108;-22
2021/04/22 01:19:26;;;;;;;12.75;7.50;;;;;;;5.88;69.36;100575.53;5049598;28;20171;-23
2021/04/22 01:21:52;;;;;;;11.20;7.38;;;;;;;6.13;69.08;100578.03;5048967;28;20467;-22
2021/04/22 01:24:17;;;;;;;11.52;7.32;;;;;;;6.18;68.50;100573.88;5031616;28;20033;-23
2021/04/22 01:26:43;;;;;;;16.15;8.82;;;;;;;6.92;67.12;100572.34;5014614;28;20404;-23
2021/04/22 01:29:09;;;;;;;14.27;9.38;;;;;;;6.79;66.18;100557.09;5031499;28;20531;-22
2021/04/22 01:31:35;;;;;;;15.07;8.90;;;;;;;6.91;66.62;100576.03;5049052;28;20091;-22
2021/04/22 01:34:06;;;;;;;15.73;10.20;;;;;;;7.39;64.93;100573.78;5049614;28;20037;-20
2021/04/22 01:36:36;;;;;;;16.20;9.38;;;;;;;7.37;63.93;100562.53;5030983;28;20056;-22
2021/04/22 01:39:05;;;;;;;16.35;10.00;;;;;;;6.97;65.37;100554.91;5049037;28;20029;-23
2021/04/22 01:41:30;;;;;;;;;;;;;;;6.37;67.73;100579.66;5049267;28;20067;-22
2021/04/22 01:43:56;;;;;;;12.30;7.75;;;;;;;6.12;68.80;100576.41;5048910;28;19940;-22
2021/04/22 01:46:22;;;;;;;10.05;7.30;;;;;;;5.81;70.34;100571.94;5030653;28;20029;-23
2021/04/22 01:48:48;;;;;;;12.73;5.75;;;;;;;5.14;72.40;100565.31;5048701;28;20136;-22
2021/04/22 01:51:13;;;;;;;28.58;7.60;;;;;;;5.31;73.37;100552.03;5048700;28;20115;-23
2021/04/22 01:53:39;;;;;;;11.02;7.68;;;;;;;6.03;71.66;100573.00;5048773;28;20060;-22
2021/04/22 01:56:05;;;;;;;14.10;9.07;;;;;;;6.21;69.78;100575.31;5048444;28;20060;-23
2021/04/22 01:58:30;;;;;;;15.57;9.80;;;;;;;6.47;68.35;100572.28;5048661;28;20039;-20
2021/04/22 02:00:57;;;;;;;14.45;9.73;;;;;;;6.53;68.28;100565.47;5049149;28;20881;-21
2021/04/22 02:03:23;;;;;;;14.65;9.32;;;;;;;6.93;66.12;100553.63;5049399;28;20037;-22
2021/04/22 02:05:48;;;;;;;18.40;11.75;;;;;;;7.17;64.45;100559.63;5048755;28;20091;-22
2021/04/22 02:08:14;;;;;;;18.75;12.00;;;;;;;7.09;64.99;100586.25;5048475;28;20154;-22
2021/04/22 02:10:40;;;;;;;17.50;11.38;;;;;;;7.32;64.67;100578.22;5048009;28;20578;-22
2021/04/22 02:13:06;;;;;;;20.58;12.35;;;;;;;6.96;65.72;100569.16;5048444;28;20025;-23
2021/04/22 02:15:32;;;;;;;20.75;12.98;;;;;;;7.10;65.14;100591.38;5048532;28;20031;-23
2021/04/22 02:17:57;;;;;;;22.98;14.38;;;;;;;7.30;64.95;100591.66;5048339;28;20021;-23
2021/04/22 02:20:23;;;;;;;21.77;13.45;;;;;;;6.77;64.99;100575.81;5030531;28;20122;-22
2021/04/22 02:22:49;;;;;;;18.35;11.32;;;;;;;6.49;66.69;100598.63;5047758;28;20520;-23
2021/04/22 02:25:16;;;;;;;18.15;11.88;;;;;;;6.67;66.52;100583.22;5047955;28;20025;-23
2021/04/22 02:27:42;;;;;;;18.98;11.80;;;;;;;6.33;67.31;100578.38;5048010;28;20025;-23
2021/04/22 02:30:13;;;;;;;19.45;12.18;;;;;;;6.51;66.86;100591.31;5048296;28;20051;-23
2021/04/22 02:32:39;;;;;;;18.63;12.07;;;;;;;6.97;66.02;100597.31;5048295;28;20029;-22
2021/04/22 02:35:06;;;;;;;20.70;12.93;;;;;;;6.42;68.03;100599.34;5047941;28;20044;-22
2021/04/22 02:37:32;;;;;;;19.13;11.68;;;;;;;6.35;68.58;100592.28;5047646;28;20057;-22
2021/04/22 02:39:58;;;;;;;21.00;12.30;;;;;;;6.23;67.64;100576.81;5047856;28;20112;-23
2021/04/22 02:42:23;;;;;;;22.58;12.75;;;;;;;6.55;66.71;100574.06;5047984;28;20107;-22
2021/04/22 02:44:49;;;;;;;22.10;12.13;;;;;;;6.55;66.51;100582.81;5047622;28;20037;-23
2021/04/22 02:47:14;;;;;;;20.08;11.52;;;;;;;6.55;66.73;100579.34;5047935;28;20063;-22
2021/04/22 02:49:40;;;;;;;14.80;9.40;;;;;;;6.58;66.48;100610.81;5047797;28;20386;-21
2021/04/22 02:52:06;;;;;;;14.32;8.65;;;;;;;6.66;65.73;100600.13;5047473;28;20182;-23
2021/04/22 02:54:31;;;;;;;15.45;9.43;;;;;;;6.58;65.17;100595.72;5047352;28;20025;-22
2021/04/22 02:56:57;;;;;;;15.98;9.63;;;;;;;6.47;65.23;100590.03;5029736;28;20059;-20
2021/04/22 02:59:22;;;;;;;14.02;8.73;;;;;;;5.51;67.80;100595.59;5047611;28;20095;-22
2021/04/22 03:01:48;;;;;;;14.80;8.65;;;;;;;6.11;66.85;100601.22;5047865;28;20036;-23
2021/04/22 03:04:13;;;;;;;16.42;9.77;;;;;;;6.21;65.43;100585.91;5047701;28;20064;-23
2021/04/22 03:06:39;;;;;;;13.63;8.25;;;;;;;6.28;65.51;100602.75;5047285;28;20025;-23
2021/04/22 03:09:05;;;;;;;17.15;8.20;;;;;;;6.35;65.43;100611.63;5047442;28;20091;-22
2021/04/22 03:11:31;;;;;;;17.33;9.80;;;;;;;6.28;65.14;100596.66;5047373;28;20029;-22
2021/04/22 03:13:56;;;;;;;21.48;10.75;;;;;;;5.78;67.42;100606.69;5047599;28;20397;-22
2021/04/22 03:16:22;;;;;;;25.73;12.18;;;;;;;5.67;67.44;100607.09;5047822;28;20439;-22
2021/04/22 03:18:48;;;;;;;17.88;10.45;;;;;;;5.24;68.85;100573.88;5047074;28;20033;-22
2021/04/22 03:21:14;;;;;;;17.90;10.27;;;;;;;5.97;67.72;100603.63;5047415;28;20086;-22
2021/04/22 03:23:39;;;;;;;20.58;11.07;;;;;;;6.55;65.60;100611.16;5047227;28;20040;-23
2021/04/22 03:26:05;;;;;;;21.45;11.50;;;;;;;6.54;64.76;100612.13;5047120;28;20036;-22
2021/04/22 03:28:30;;;;;;;19.77;10.88;;;;;;;6.25;66.03;100592.50;5047382;28;20508;-22
2021/04/22 03:30:56;;;;;;;20.50;12.20;;;;;;;6.49;65.84;100604.72;5047491;28;20108;-22
2021/04/22 03:33:22;;;;;;;22.95;13.52;;;;;;;6.29;67.49;100612.34;5047278;28;20024;-21
2021/04/22 03:35:47;;;;;;;35.60;17.70;;;;;;;6.52;66.22;100607.03;5047709;28;20061;-21
2021/04/22 03:38:13;;;;;;;35.13;19.27;;;;;;;6.48;65.74;100602.25;5047518;28;20864;-23
2021/04/22 03:40:38;;;;;;;26.25;15.73;;;;;;;6.24;67.29;100617.38;5046906;28;20067;-22
2021/04/22 03:43:04;;;;;;;20.27;12.05;;;;;;;6.24;67.09;100614.72;5047188;28;20095;-22
2021/04/22 03:45:29;;;;;;;18.00;10.30;;;;;;;5.91;67.69;100612.25;5046059;28;20032;-22
2021/04/22 03:47:55;;;;;;;15.77;9.57;;;;;;;5.51;68.45;100598.22;5046511;28;20095;-22
2021/04/22 03:50:21;;;;;;;20.50;10.40;;;;;;;4.95;70.44;100605.38;5047227;28;20056;-22
2021/04/22 03:52:47;;;;;;;20.15;12.32;;;;;;;4.85;71.06;100610.03;5046444;28;20440;-21
2021/04/22 03:55:13;;;;;;;19.60;12.02;;;;;;;4.55;71.61;100626.38;5045860;28;20066;-22
2021/04/22 03:57:39;;;;;;;16.40;10.93;;;;;;;4.33;71.35;100608.56;5046903;28;20408;-22
2021/04/22 04:00:06;;;;;;;15.05;10.80;;;;;;;4.51;71.57;100629.53;5047058;28;20071;-23
2021/04/22 04:02:32;;;;;;;16.17;7.90;;;;;;;5.07;69.36;100640.19;5047043;28;20059;-19
2021/04/22 04:04:57;;;;;;;14.35;8.38;;;;;;;5.30;68.92;100630.56;5047008;28;20412;-22
2021/04/22 04:07:23;;;;;;;22.15;9.23;;;;;;;5.61;68.59;100632.41;5046798;28;20124;-22
2021/04/22 04:09:48;;;;;;;19.58;8.77;;;;;;;6.14;66.05;100633.47;5048937;28;20037;-22
2021/04/22 04:12:14;;;;;;;16.80;8.60;;;;;;;6.12;67.22;100639.94;5050575;28;20028;-22
2021/04/22 04:14:39;;;;;;;17.48;8.23;;;;;;;5.43;69.99;100646.72;5050469;28;20029;-20
2021/04/22 04:17:05;;;;;;;19.52;9.45;;;;;;;5.82;68.58;100650.34;5051027;28;20044;-21
2021/04/22 04:19:31;;;;;;;14.90;8.52;;;;;;;5.54;68.86;100631.47;5050802;28;20063;-22
2021/04/22 04:21:56;;;;;;;20.23;9.73;;;;;;;5.61;69.59;100622.66;5050377;28;20036;-22
2021/04/22 04:24:22;;;;;;;16.48;9.55;;;;;;;5.78;68.72;100633.16;5050464;28;20108;-22
2021/04/22 04:26:48;;;;;;;24.15;8.75;;;;;;;5.52;70.08;100629.00;5050338;28;20048;-22
2021/04/22 04:29:13;;;;;;;20.83;10.82;;;;;;;5.47;70.28;100651.66;5050296;28;20052;-22
2021/04/22 04:31:39;;;;;;;28.10;9.63;;;;;;;5.87;69.37;100658.59;5050191;28;20029;-22
2021/04/22 04:34:04;;;;;;;41.35;10.45;;;;;;;5.49;71.08;100657.59;5050212;28;20068;-22
2021/04/22 04:36:30;;;;;;;41.45;10.43;;;;;;;5.62;71.31;100664.00;5050074;28;20139;-23
2021/04/22 04:38:56;;;;;;;66.35;11.00;;;;;;;5.95;69.71;100682.41;5049774;28;20079;-21
2021/04/22 04:41:21;;;;;;;50.13;11.35;;;;;;;5.58;72.51;100665.34;5050244;28;20037;-22
2021/04/22 04:43:47;;;;;;;31.30;10.63;;;;;;;5.66;71.45;100676.88;5050475;28;20472;-22
2021/04/22 04:46:14;;;;;;;28.55;10.50;;;;;;;5.29;73.63;100676.53;5049920;28;20539;-23
2021/04/22 04:48:40;;;;;;;35.28;10.30;;;;;;;5.24;74.31;100682.28;5049478;28;20040;-22
2021/04/22 04:51:05;;;;;;;21.73;8.90;;;;;;;5.04;75.15;100683.66;5049712;28;20520;-22
2021/04/22 04:53:31;;;;;;;22.02;10.55;;;;;;;4.97;75.08;100693.25;5049833;28;20103;-21
2021/04/22 04:55:56;;;;;;;17.42;8.65;;;;;;;5.23;73.64;100675.38;5050060;28;20409;-19
2021/04/22 04:58:22;;;;;;;18.70;9.60;;;;;;;5.37;73.89;100683.59;5050127;28;20801;-22
2021/04/22 05:00:48;;;;;;;17.02;8.23;;;;;;;5.51;73.59;100688.19;5049689;28;20492;-22
2021/04/22 05:03:13;;;;;;;13.20;8.48;;;;;;;5.40;73.78;100676.16;5049775;28;20554;-22
2021/04/22 05:05:39;;;;;;;22.80;9.85;;;;;;;5.94;72.79;100669.31;5049433;28;20110;-22
2021/04/22 05:08:04;;;;;;;20.08;12.23;;;;;;;6.34;71.40;100675.41;5049571;28;20447;-22
2021/04/22 05:10:30;;;;;;;21.50;14.07;;;;;;;6.49;71.07;100662.22;5049658;28;20476;-22
2021/04/22 05:12:56;;;;;;;20.33;12.75;;;;;;;6.53;71.74;100666.16;5049374;28;20021;-22
2021/04/22 05:15:21;;;;;;;21.00;11.52;;;;;;;6.37;72.49;100649.38;5049523;28;20029;-22
2021/04/22 05:17:47;;;;;;;20.58;12.35;;;;;;;6.33;72.10;100604.88;5049419;28;20024;-22
2021/04/22 05:20:13;;;;;;;17.67;13.07;;;;;;;7.38;70.38;100662.38;5049059;28;20037;-22
2021/04/22 05:22:38;;;;;;;25.48;16.63;;;;;;;7.38;71.84;100663.19;5048522;28;20022;-22
2021/04/22 05:25:04;;;;;;;20.45;15.10;;;;;;;7.44;71.37;100673.06;5049412;28;20090;-23
2021/04/22 05:27:30;;;;;;;23.83;15.18;;;;;;;7.56;72.39;100665.47;5049094;28;20497;-22
2021/04/22 05:29:56;;;;;;;16.52;10.63;;;;;;;7.62;72.16;100683.31;5048991;28;20044;-22
2021/04/22 05:32:21;;;;;;;16.92;10.82;;;;;;;7.89;71.67;100681.00;5049164;28;20032;-22
2021/04/22 05:34:47;;;;;;;16.08;10.27;;;;;;;8.07;70.07;100685.06;5049127;28;20044;-21
2021/04/22 05:37:12;;;;;;;15.20;9.88;;;;;;;7.90;70.92;100669.34;5049108;28;20040;-22
2021/04/22 05:39:38;;;;;;;14.90;10.70;;;;;;;8.51;68.67;100684.16;5049059;28;20029;-22
2021/04/22 05:42:03;;;;;;;15.48;10.13;;;;;;;8.70;67.37;100661.41;5049035;28;20094;-22
2021/04/22 05:44:29;;;;;;;15.25;9.93;;;;;;;8.69;68.24;100668.56;5048708;28;20424;-22
2021/04/22 05:46:54;;;;;;;16.70;10.18;;;;;;;9.01;67.22;100690.28;5048442;28;20075;-22
2021/04/22 05:49:20;;;;;;;14.25;10.27;;;;;;;9.02;67.22;100689.28;5048681;28;20033;-22
2021/04/22 05:51:46;;;;;;;14.85;10.13;;;;;;;9.23;66.83;100699.03;5048646;28;20049;-22
2021/04/22 05:54:11;;;;;;;15.82;11.13;;;;;;;9.17;67.20;100700.63;5048722;28;20029;-22
2021/04/22 05:56:37;;;;;;;13.27;9.60;;;;;;;9.40;67.01;100699.59;5048487;28;20503;-22
2021/04/22 05:59:03;;;;;;;16.40;12.07;;;;;;;9.78;65.85;100681.31;5048585;28;20025;-22
2021/04/22 06:01:29;;;;;;;16.58;11.10;;;;;;;9.94;65.55;100696.16;5048936;28;20033;-22
2021/04/22 06:03:54;;;;;;;14.18;10.45;;;;;;;9.98;67.02;100708.06;5048446;28;20033;-22
2021/04/22 06:06:20;;;;;;;13.32;10.15;;;;;;;10.43;64.92;100711.09;5048438;28;20070;-22
2021/04/22 06:08:48;;;;;;;13.88;10.25;;;;;;;10.82;63.62;100688.16;5048365;28;20512;-19
2021/04/22 06:11:14;;;;;;;12.95;9.00;;;;;;;10.96;61.74;100688.97;5048554;28;20412;-22
2021/04/22 06:13:40;;;;;;;12.73;9.15;;;;;;;11.18;63.18;100692.25;5048618;28;20139;-21
2021/04/22 06:16:06;;;;;;;13.15;9.38;;;;;;;11.23;62.91;100700.44;5048555;28;20439;-20
2021/04/22 06:18:31;;;;;;;16.63;10.45;;;;;;;11.18;62.59;100702.13;5048280;28;20082;-20
2021/04/22 06:20:57;;;;;;;13.57;9.57;;;;;;;11.09;61.43;100687.31;5030260;28;20033;-22
2021/04/22 06:23:22;;;;;;;14.10;9.27;;;;;;;11.04;62.74;100706.63;5048232;28;20075;-22
2021/04/22 06:25:48;;;;;;;15.15;9.45;;;;;;;11.15;63.40;100702.50;5048071;28;20036;-22
2021/04/22 06:28:15;;;;;;;12.90;9.15;;;;;;;11.22;64.12;100698.00;5047986;28;20378;-22
2021/04/22 06:30:40;;;;;;;14.30;9.73;;;;;;;11.21;63.53;100707.03;5047729;28;20531;-22
2021/04/22 06:33:06;;;;;;;14.90;9.35;;;;;;;11.81;61.70;100709.53;5046940;28;20120;-22
2021/04/22 06:35:31;;;;;;;13.90;8.23;;;;;;;11.98;60.01;100717.97;5047746;28;20043;-22
2021/04/22 06:37:57;;;;;;;11.88;8.32;;;;;;;12.19;60.04;100706.94;5048027;28;20087;-22
2021/04/22 06:40:22;;;;;;;13.10;9.98;;;;;;;12.42;60.12;100698.41;5047914;28;20496;-22
2021/04/22 06:42:48;;;;;;;14.27;10.18;;;;;;;12.70;61.58;100713.22;5047832;28;20100;-21
2021/04/22 06:45:14;;;;;;;14.80;9.15;;;;;;;12.50;59.40;100715.22;5047831;28;20037;-22
2021/04/22 06:47:40;;;;;;;12.55;8.98;;;;;;;12.37;61.91;100700.06;5047662;28;20032;-22
2021/04/22 06:50:07;;;;;;;15.02;10.27;;;;;;;12.64;60.72;100719.44;5047661;28;20481;-22
2021/04/22 06:52:33;;;;;;;13.40;9.43;;;;;;;12.83;61.22;100710.47;5047201;28;20037;-22
2021/04/22 06:54:59;;;;;;;14.45;9.90;;;;;;;13.42;59.60;100702.13;5047664;28;20051;-22
2021/04/22 06:57:25;;;;;;;13.88;10.00;;;;;;;14.00;56.36;100707.03;5047843;28;20032;-20
2021/04/22 06:59:51;;;;;;;13.45;9.55;;;;;;;13.80;56.82;100714.50;5047769;28;20134;-19
2021/04/22 07:02:16;;;;;;;12.95;9.27;;;;;;;13.90;57.15;100722.84;5048136;28;20431;-22
2021/04/22 07:04:42;;;;;;;12.43;9.57;;;;;;;14.09;58.29;100710.22;5047276;28;20041;-22
2021/04/22 07:07:08;;;;;;;12.50;9.55;;;;;;;13.92;57.72;100711.91;5047460;28;20448;-22
2021/04/22 07:09:35;;;;;;;14.00;10.43;;;;;;;14.31;59.06;100704.38;5047587;28;20603;-22
2021/04/22 07:12:00;;;;;;;12.32;8.90;;;;;;;14.40;56.24;100701.13;5047373;28;20033;-21
2021/04/22 07:14:26;;;;;;;12.95;8.20;;;;;;;13.86;57.48;100697.53;5047232;28;20032;-22
2021/04/22 07:16:51;;;;;;;11.18;8.35;;;;;;;14.27;56.06;100693.28;5047085;28;20033;-21
2021/04/22 07:19:17;;;;;;;12.10;8.98;;;;;;;13.99;57.90;100696.53;5047331;28;20401;-22
2021/04/22 07:21:42;;;;;;;11.40;8.52;;;;;;;13.77;57.87;100680.09;5047447;28;20098;-22
2021/04/22 07:24:08;;;;;;;12.00;8.90;;;;;;;14.50;55.76;100697.06;5047429;28;20060;-22
2021/04/22 07:26:34;;;;;;;13.10;9.27;;;;;;;15.07;55.02;100675.94;5047041;28;20037;-22
2021/04/22 07:28:59;;;;;;;12.52;8.85;;;;;;;15.27;54.17;100694.41;5047263;28;20032;-22
2021/04/22 07:31:25;;;;;;;10.05;7.82;;;;;;;15.18;53.90;100688.56;5047127;28;20033;-22
2021/04/22 07:33:51;;;;;;;11.75;8.38;;;;;;;15.01;53.31;100687.63;5047655;28;20029;-21
2021/04/22 07:36:18;;;;;;;12.30;8.40;;;;;;;15.05;55.22;100691.47;5047223;28;20063;-21
2021/04/22 07:38:43;;;;;;;10.55;8.18;;;;;;;15.38;57.56;100690.06;5046900;28;20037;-21
2021/04/22 07:41:09;;;;;;;10.55;7.95;;;;;;;15.26;55.56;100682.84;5047314;28;20094;-19
2021/04/22 07:43:35;;;;;;;11.23;7.85;;;;;;;15.44;55.10;100686.44;5047752;28;20136;-21
2021/04/22 07:46:00;;;;;;;12.10;8.43;;;;;;;15.01;56.90;100693.81;5051096;28;20056;-21
2021/04/22 07:48:26;;;;;;;11.27;7.82;;;;;;;14.83;55.96;100667.88;5051177;28;20516;-22
2021/04/22 07:50:52;;;;;;;12.07;8.52;;;;;;;15.22;55.64;100670.94;5050776;28;20141;-21
2021/04/22 07:53:18;;;;;;;10.98;7.97;;;;;;;15.74;53.41;100675.53;5051225;28;20083;-21
2021/04/22 07:55:45;;;;;;;10.48;7.70;;;;;;;15.78;53.00;100681.25;5050793;28;20556;-22
2021/04/22 07:58:14;;;;;;;12.93;9.02;;;;;;;16.12;51.46;100681.38;5050704;28;20029;-22
2021/04/22 08:00:41;;;;;;;10.10;7.80;;;;;;;15.96;52.35;100673.00;5050537;28;20095;-23
2021/04/22 08:03:07;;;;;;;10.18;7.50;;;;;;;16.31;51.29;100690.06;5050601;28;20029;-22
2021/04/22 08:05:35;;;;;;;10.80;7.45;;;;;;;16.63;53.58;100674.19;5032931;28;20495;-21
2021/04/22 08:08:01;;;;;;;11.88;8.35;;;;;;;16.01;53.77;100681.16;5033170;28;20094;-22
2021/04/22 08:10:28;;;;;;;12.75;7.93;;;;;;;15.82;54.71;100693.19;5050782;28;20506;-22
2021/04/22 08:12:54;;;;;;;10.30;7.53;;;;;;;16.17;54.27;100701.13;5032592;28;20029;-21
2021/04/22 08:15:19;;;;;;;10.35;7.10;;;;;;;15.81;53.57;100675.38;5050447;28;20033;-22
2021/04/22 08:17:45;;;;;;;10.98;7.88;;;;;;;16.13;52.26;100669.56;5050325;28;20033;-21
2021/04/22 08:20:19;;;;;;;9.00;6.75;;;;;;;16.20;51.99;100670.22;5050304;28;20099;-22
2021/04/22 08:22:45;;;;;;;10.57;7.75;;;;;;;16.75;52.10;100687.59;5050276;28;20029;-21
2021/04/22 08:25:19;;;;;;;8.80;6.63;;;;;;;16.61;50.42;100685.22;5050440;28;20047;-21
2021/04/22 08:27:48;;;;;;;8.93;7.10;;;;;;;16.93;50.94;100686.56;5050148;28;20632;-21
2021/04/22 08:30:15;;;;;;;8.70;6.47;;;;;;;17.24;50.51;100688.66;5032475;28;20033;-21
2021/04/22 08:32:46;;;;;;;10.33;6.33;;;;;;;17.18;48.86;100675.34;5049993;28;20496;-22
2021/04/22 08:35:12;;;;;;;8.60;6.07;;;;;;;17.34;47.83;100660.19;5050342;28;20763;-21
2021/04/22 08:37:38;;;;;;;9.27;6.45;;;;;;;17.84;49.69;100686.22;5032232;28;20036;-21
2021/04/22 08:40:08;;;;;;;8.48;6.18;;;;;;;17.77;48.15;100680.16;5050055;28;20032;-21
2021/04/22 08:42:34;;;;;;;8.88;5.68;;;;;;;17.36;47.68;100679.63;5049617;28;20501;-21
2021/04/22 08:45:00;;;;;;;8.43;5.22;;;;;;;17.59;46.79;100678.56;5050089;28;20059;-21
2021/04/22 08:47:29;;;;;;;7.70;4.90;;;;;;;17.53;45.77;100675.03;5049912;28;20064;-21
2021/04/22 08:49:56;;;;;;;7.78;4.35;;;;;;;17.35;44.39;100656.44;5050013;28;20036;-21
2021/04/22 08:52:21;;;;;;;6.22;4.00;;;;;;;18.05;41.90;100660.25;5049637;28;20060;-22
2021/04/22 08:54:47;;;;;;;6.55;4.28;;;;;;;17.70;42.22;100658.78;5049374;28;20033;-21
2021/04/22 08:57:12;;;;;;;6.25;4.45;;;;;;;18.22;43.30;100668.25;5030720;28;20036;-21
2021/04/22 08:59:38;;;;;;;7.72;4.80;;;;;;;18.36;42.10;100655.16;5049896;28;20057;-21
2021/04/22 09:02:04;;;;;;;8.02;5.50;;;;;;;18.42;42.25;100659.53;5049756;28;20501;-21
2021/04/22 09:04:29;;;;;;;8.50;5.60;;;;;;;18.58;43.18;100652.38;5049498;28;20493;-21
2021/04/22 09:06:55;;;;;;;33.80;25.63;;;;;;;18.95;44.05;100663.22;5049142;28;20025;-20
2021/04/22 09:09:20;;;;;;;79.47;51.22;;;;;;;19.24;43.52;100654.75;5049566;28;20029;-19
2021/04/22 09:11:47;;;;;;;7.53;4.97;;;;;;;19.25;42.66;100668.00;5049694;28;20036;-21
2021/04/22 09:14:18;;;;;;;7.28;4.57;;;;;;;18.98;42.92;100651.06;5049610;28;20021;-21
2021/04/22 09:16:43;;;;;;;7.70;5.28;;;;;;;18.84;43.12;100656.13;5049142;28;20507;-20
2021/04/22 09:19:14;;;;;;;12.68;10.32;;;;;;;19.20;40.01;100649.03;5049547;28;20029;-19
2021/04/22 09:21:42;;;;;;;6.80;4.60;;;;;;;19.59;39.08;100645.97;5049364;28;20542;-21
2021/04/22 09:24:13;;;;;;;6.68;4.80;;;;;;;19.39;42.74;100651.31;5049106;28;20040;-21
2021/04/22 09:26:45;;;;;;;5.40;4.03;;;;;;;19.12;42.41;100648.72;5048858;28;20055;-21
2021/04/22 09:29:15;;;;;;;6.90;4.25;;;;;;;19.05;42.14;100627.34;5049297;28;20099;-21
2021/04/22 09:31:41;;;;;;;6.55;4.03;;;;;;;19.38;38.36;100622.66;5049227;28;20040;-21
2021/04/22 09:34:12;;;;;;;5.38;3.47;;;;;;;19.86;38.29;100624.19;5048988;28;20028;-21
2021/04/22 09:36:47;;;;;;;5.63;4.00;;;;;;;20.01;38.15;100636.13;5049212;28;20169;-21
2021/04/22 09:39:20;;;;;;;6.00;3.75;;;;;;;20.42;37.98;100619.94;5049095;28;20103;-21
2021/04/22 09:41:47;;;;;;;5.63;3.53;;;;;;;20.73;35.59;100637.00;5032012;28;20476;-21
2021/04/22 09:44:14;;;;;;;5.25;3.33;;;;;;;21.14;36.17;100627.97;5048857;28;20029;-21
2021/04/22 09:46:45;;;;;;;5.85;3.75;;;;;;;21.13;36.17;100618.25;5048352;28;20550;-21
2021/04/22 09:49:20;;;;;;;5.75;3.63;;;;;;;20.57;35.18;100600.13;5048685;28;20037;-21
2021/04/22 09:51:47;;;;;;;5.85;4.03;;;;;;;20.81;34.68;100609.34;5048584;28;20103;-20
2021/04/22 09:54:15;;;;;;;5.63;4.03;;;;;;;21.17;33.42;100630.97;5048629;28;20087;-20
2021/04/22 09:56:45;;;;;;;7.93;3.70;;;;;;;21.07;33.20;100615.53;5048138;28;20048;-21
2021/04/22 09:59:11;;;;;;;7.43;3.50;;;;;;;21.53;32.45;100627.34;5048361;28;20037;-21
2021/04/22 10:01:36;;;;;;;5.45;3.15;;;;;;;21.63;31.56;100606.38;5048373;28;20029;-20
2021/04/22 10:04:02;;;;;;;4.22;2.60;;;;;;;21.69;30.46;100619.94;5030608;28;20071;-20
2021/04/22 10:06:39;;;;;;;5.30;3.30;;;;;;;21.62;29.72;100609.38;5048215;28;20090;-20
2021/04/22 10:09:05;;;;;;;5.55;3.25;;;;;;;21.83;31.49;100605.44;5048395;28;20032;-21
2021/04/22 10:11:43;;;;;;;5.55;3.78;;;;;;;22.33;30.47;100580.97;5048229;28;20056;-21
2021/04/22 10:14:08;;;;;;;5.57;3.67;;;;;;;22.80;30.55;100595.75;5048210;28;20032;-20
2021/04/22 10:16:34;;;;;;;5.10;3.17;;;;;;;23.18;29.38;100595.88;5048012;28;20114;-20
2021/04/22 10:19:00;;;;;;;5.20;3.30;;;;;;;22.86;30.22;100593.75;5048281;28;20068;-19
2021/04/22 10:21:26;;;;;;;4.47;2.78;;;;;;;22.02;29.35;100586.59;5030831;28;20036;-21
2021/04/22 10:24:02;;;;;;;5.65;3.13;;;;;;;21.84;30.31;100569.09;5048329;28;20892;-21
2021/04/22 10:26:27;;;;;;;4.43;2.83;;;;;;;22.96;29.07;100588.22;5047825;28;20032;-20
2021/04/22 10:28:53;;;;;;;5.45;2.92;;;;;;;22.21;30.46;100575.03;5048113;28;20024;-21
2021/04/22 10:31:21;;;;;;;4.80;2.80;;;;;;;21.98;30.64;100577.38;5047773;28;20029;-20
2021/04/22 10:33:47;;;;;;;4.70;2.90;;;;;;;22.63;28.57;100566.25;5047796;28;20404;-20
2021/04/22 10:36:12;;;;;;;5.97;3.30;;;;;;;23.09;28.93;100575.88;5030159;28;20163;-21
2021/04/22 10:38:38;;;;;;;4.97;3.25;;;;;;;23.16;30.25;100570.06;5030001;28;20036;-20
2021/04/22 10:41:04;;;;;;;5.30;3.30;;;;;;;23.35;29.34;100568.19;5047572;28;20025;-19
2021/04/22 10:43:30;;;;;;;4.03;3.03;;;;;;;23.41;28.35;100542.50;5030104;28;20043;-21
2021/04/22 10:45:56;;;;;;;4.60;3.10;;;;;;;23.45;28.71;100561.81;5014183;28;20028;-21
2021/04/22 10:48:22;;;;;;;3.85;2.75;;;;;;;23.86;27.54;100550.34;5048020;28;20052;-21
2021/04/22 10:50:49;;;;;;;5.18;2.88;;;;;;;24.09;25.55;100550.53;5047276;28;20063;-21
2021/04/22 10:53:18;;;;;;;4.57;2.58;;;;;;;24.11;23.79;100567.38;5047658;28;20108;-20
2021/04/22 10:55:44;;;;;;;4.38;2.83;;;;;;;24.74;26.09;100558.66;5030253;28;20029;-21
2021/04/22 10:58:29;;;;;;;5.70;2.65;;;;;;;25.02;24.63;100547.78;5047681;28;20025;-21
2021/04/22 11:00:56;;;;;;;4.18;2.55;;;;;;;24.58;26.33;100550.00;5047464;28;20029;-21
2021/04/22 11:03:32;;;;;;;5.85;2.65;;;;;;;25.88;23.61;100551.66;5047435;28;20025;-21
2021/04/22 11:05:58;;;;;;;9.23;2.80;;;;;;;24.39;25.17;100541.81;5047250;28;20036;-20
2021/04/22 11:08:34;;;;;;;4.10;2.67;;;;;;;24.10;25.35;100544.00;5047369;28;20025;-20
2021/04/22 11:11:00;;;;;;;6.13;2.85;;;;;;;24.83;25.17;100545.16;5047417;28;20090;-21
2021/04/22 11:13:30;;;;;;;3.58;2.33;;;;;;;24.73;25.84;100548.88;5047364;28;20032;-21
2021/04/22 11:15:56;;;;;;;4.85;2.45;;;;;;;25.22;22.79;100541.13;5047378;28;20044;-21
2021/04/22 11:18:32;;;;;;;4.38;2.80;;;;;;;25.02;23.02;100543.13;5047923;28;20029;-21